Time;durP1;ratioP1;P1;durP2;ratioP2;P2;SDS_P1;SDS_P2;PMS_P1;PMS_P2;Temp;Humidity;BMP_temperature;BMP_pressure;BME280_temperature;BME280_humidity;BME280_pressure;Samples;Min_cycle;Max_cycle;Signal;HPM_P1;HPM_P2
2022/05/03 00:01:57;;;;;;;3.00;1.80;;;;;;;7.16;68.56;101901.59;5052195;28;20235;-72
2022/05/03 00:04:36;;;;;;;2.10;1.60;;;;;;;7.11;69.24;101908.13;5052785;28;20209;-72
2022/05/03 00:07:13;;;;;;;2.53;1.50;;;;;;;6.92;69.88;101906.34;5034562;28;20193;-71
2022/05/03 00:09:51;;;;;;;3.27;1.83;;;;;;;6.96;70.03;101903.13;5032996;28;20183;-72
2022/05/03 00:12:20;;;;;;;2.97;1.80;;;;;;;6.93;70.09;101899.56;5032426;28;20212;-72
2022/05/03 00:14:50;;;;;;;2.83;1.90;;;;;;;6.82;70.41;101893.94;5032258;28;20190;-72
2022/05/03 00:17:18;;;;;;;1.40;1.30;;;;;;;6.84;70.46;101891.47;5032326;28;20221;-72
2022/05/03 00:19:44;;;;;;;1.87;1.40;;;;;;;6.81;70.52;101892.19;5032136;28;20562;-71
2022/05/03 00:22:13;;;;;;;5.07;1.83;;;;;;;6.80;70.66;101892.09;5027998;28;20305;-72
2022/05/03 00:24:39;;;;;;;1.83;1.43;;;;;;;6.66;71.92;101890.53;5013577;28;20277;-73
2022/05/03 00:27:05;;;;;;;1.50;1.40;;;;;;;6.66;71.91;101887.97;5032363;28;20182;-72
2022/05/03 00:29:33;;;;;;;2.00;1.37;;;;;;;6.63;71.47;101892.94;5030966;28;20241;-72
2022/05/03 00:32:01;;;;;;;1.70;1.57;;;;;;;6.53;71.97;101883.03;5031557;28;20242;-72
2022/05/03 00:34:28;;;;;;;2.50;1.70;;;;;;;6.54;72.61;101882.28;5032402;28;20301;-73
2022/05/03 00:36:53;;;;;;;2.63;1.73;;;;;;;6.47;72.81;101886.16;5031926;28;20214;-72
2022/05/03 00:39:18;;;;;;;2.77;1.60;;;;;;;6.43;72.44;101886.81;5031232;28;20636;-72
2022/05/03 00:42:03;;;;;;;2.77;1.60;;;;;;;6.43;72.13;101898.63;5030914;28;20210;-72
2022/05/03 00:45:01;;;;;;;4.13;1.97;;;;;;;6.29;71.81;101886.84;5032235;28;20247;-72
2022/05/03 00:47:43;;;;;;;2.33;1.67;;;;;;;6.14;72.48;101891.13;5030502;28;20186;-72
2022/05/03 00:50:15;;;;;;;1.93;1.47;;;;;;;6.12;72.80;101892.72;5032161;28;20194;-72
2022/05/03 00:52:47;;;;;;;2.83;1.70;;;;;;;6.11;73.43;101884.22;5031615;28;20849;-72
2022/05/03 00:55:32;;;;;;;2.50;1.80;;;;;;;6.10;74.22;101892.66;5030756;28;20542;-72
2022/05/03 00:58:09;;;;;;;3.33;2.20;;;;;;;5.95;74.65;101881.63;5026842;28;20266;-73
2022/05/03 01:00:41;;;;;;;2.30;1.87;;;;;;;5.94;74.42;101889.19;5012294;28;20179;-72
2022/05/03 01:03:21;;;;;;;2.93;1.50;;;;;;;5.94;74.85;101881.56;5027455;28;20356;-72
2022/05/03 01:06:21;;;;;;;3.10;2.00;;;;;;;5.93;75.07;101873.06;5031926;28;20538;-71
2022/05/03 01:09:02;;;;;;;2.57;1.70;;;;;;;5.79;75.56;101886.66;5031402;28;20199;-71
2022/05/03 01:11:54;;;;;;;3.70;2.10;;;;;;;5.88;75.22;101879.56;5031541;28;20170;-71
2022/05/03 01:15:03;;;;;;;2.63;1.90;;;;;;;5.74;75.41;101882.09;5022818;28;20611;-71
2022/05/03 01:17:45;;;;;;;4.10;1.80;;;;;;;5.75;75.41;101876.25;5011286;28;20688;-72
2022/05/03 01:20:15;;;;;;;3.63;2.33;;;;;;;5.70;75.93;101872.56;5011445;28;20179;-72
2022/05/03 01:23:13;;;;;;;2.30;1.60;;;;;;;5.68;76.07;101869.94;5011434;28;20683;-72
2022/05/03 01:25:44;;;;;;;2.77;1.77;;;;;;;5.68;76.67;101876.69;5011228;28;20183;-72
2022/05/03 01:28:16;;;;;;;4.47;2.07;;;;;;;5.64;77.05;101875.66;5010339;28;20188;-72
2022/05/03 01:30:49;;;;;;;3.10;2.00;;;;;;;5.60;76.67;101875.38;5011845;28;20206;-72
2022/05/03 01:33:31;;;;;;;3.43;2.07;;;;;;;5.59;76.38;101877.06;5010716;28;20264;-73
2022/05/03 01:35:59;;;;;;;4.40;2.13;;;;;;;5.54;76.15;101872.50;5010132;28;20268;-73
2022/05/03 01:39:02;;;;;;;2.67;1.83;;;;;;;5.40;76.45;101874.28;5010903;28;20198;-72
2022/05/03 01:41:51;;;;;;;3.83;2.10;;;;;;;5.31;76.76;101877.97;5009409;28;20182;-71
2022/05/03 01:44:35;;;;;;;3.53;1.90;;;;;;;5.32;77.26;101872.97;5010882;28;20191;-72
2022/05/03 01:47:13;;;;;;;4.50;2.20;;;;;;;5.28;78.25;101871.06;5015125;28;20252;-71
2022/05/03 01:50:20;;;;;;;5.03;2.40;;;;;;;5.39;78.66;101869.97;5030605;28;20200;-73
2022/05/03 01:53:07;;;;;;;3.53;1.97;;;;;;;5.31;77.92;101866.16;5030630;28;20217;-72
2022/05/03 01:55:52;;;;;;;4.47;2.73;;;;;;;5.36;77.51;101868.94;5030392;28;20691;-72
2022/05/03 01:58:35;;;;;;;3.43;2.50;;;;;;;5.19;78.03;101867.97;5030900;28;20193;-72
2022/05/03 02:01:09;;;;;;;4.20;2.40;;;;;;;5.22;78.29;101872.34;5027616;28;20190;-73
2022/05/03 02:03:47;;;;;;;3.30;2.27;;;;;;;5.13;78.68;101869.28;5037658;28;20696;-72
2022/05/03 02:06:14;;;;;;;3.07;2.37;;;;;;;5.04;79.34;101876.38;5010560;28;20223;-72
2022/05/03 02:09:00;;;;;;;4.93;2.50;;;;;;;4.99;79.57;101876.13;5010938;28;20179;-73
2022/05/03 02:12:04;;;;;;;3.33;2.50;;;;;;;4.93;79.51;101873.22;5010307;28;20183;-72
2022/05/03 02:14:47;;;;;;;4.57;2.53;;;;;;;4.93;80.43;101872.34;5010654;28;20660;-72
2022/05/03 02:17:50;;;;;;;2.90;2.10;;;;;;;4.92;80.35;101874.00;5010093;28;20195;-72
2022/05/03 02:20:44;;;;;;;3.53;2.37;;;;;;;4.92;79.95;101870.63;5010807;28;20719;-71
2022/05/03 02:23:30;;;;;;;5.23;2.80;;;;;;;4.94;80.14;101874.09;5009911;28;20688;-71
2022/05/03 02:26:13;;;;;;;4.67;2.73;;;;;;;4.91;80.72;101863.75;5010663;28;20640;-71
2022/05/03 02:28:44;;;;;;;3.00;2.67;;;;;;;4.87;80.60;101860.19;5010117;28;20186;-71
2022/05/03 02:31:14;;;;;;;4.00;3.17;;;;;;;4.92;81.32;101863.00;5010359;28;20191;-71
2022/05/03 02:33:52;;;;;;;6.70;2.93;;;;;;;4.84;81.42;101856.59;5009784;28;20579;-72
2022/05/03 02:36:24;;;;;;;3.87;2.73;;;;;;;4.79;81.53;101858.00;5010498;28;20553;-71
2022/05/03 02:39:03;;;;;;;3.30;2.60;;;;;;;4.76;80.50;101856.16;5020185;28;20191;-71
2022/05/03 02:41:36;;;;;;;5.37;2.73;;;;;;;4.77;80.51;101860.44;5029742;28;20174;-74
2022/05/03 02:44:03;;;;;;;4.20;2.70;;;;;;;4.68;80.24;101856.47;5029670;28;20243;-72
2022/05/03 02:46:37;;;;;;;4.03;3.10;;;;;;;4.68;81.15;101856.47;5030017;28;20210;-72
2022/05/03 02:49:07;;;;;;;4.63;3.53;;;;;;;4.60;81.74;101850.09;5029779;28;20182;-72
2022/05/03 02:51:51;;;;;;;5.43;3.30;;;;;;;4.66;80.86;101851.34;5029537;28;20190;-71
2022/05/03 02:54:43;;;;;;;6.37;3.60;;;;;;;4.62;80.21;101856.13;5029861;28;20644;-71
2022/05/03 02:57:30;;;;;;;4.30;3.43;;;;;;;4.53;80.93;101851.41;5009880;28;20704;-71
2022/05/03 03:03:20;;;;;;;4.80;3.10;;;;;;;4.49;81.23;101856.19;5026314;28;20210;-71
2022/05/03 03:05:53;;;;;;;4.43;2.93;;;;;;;4.40;81.63;101853.97;5048962;28;20553;-72
2022/05/03 03:08:19;;;;;;;3.13;2.83;;;;;;;4.48;81.22;101845.19;5049458;28;20194;-71
2022/05/03 03:11:03;;;;;;;3.70;2.90;;;;;;;4.44;81.85;101848.31;5049600;28;20565;-72
2022/05/03 03:13:59;;;;;;;5.90;3.00;;;;;;;4.43;81.39;101850.75;5016304;28;20223;-71
2022/05/03 03:16:32;;;;;;;5.03;3.00;;;;;;;4.36;81.64;101854.56;5009751;28;20203;-71
2022/05/03 03:19:02;;;;;;;5.10;3.07;;;;;;;4.38;80.76;101852.13;5009680;28;20258;-72
2022/05/03 03:21:34;;;;;;;4.33;3.37;;;;;;;4.26;81.19;101849.75;5009954;28;20199;-72
2022/05/03 03:24:00;;;;;;;3.53;3.13;;;;;;;4.29;81.42;101844.88;5008613;28;20221;-71
2022/05/03 03:26:29;;;;;;;4.20;3.00;;;;;;;4.31;80.42;101844.94;5010333;28;20180;-71
2022/05/03 03:28:58;;;;;;;5.20;3.40;;;;;;;4.30;81.16;101844.09;5013977;28;20202;-72
2022/05/03 03:31:25;;;;;;;5.67;3.43;;;;;;;4.37;81.39;101846.19;5013956;28;20203;-71
2022/05/03 03:33:54;;;;;;;4.90;3.53;;;;;;;4.30;81.39;101845.72;5013544;28;20225;-71
2022/05/03 03:36:22;;;;;;;5.90;3.73;;;;;;;4.20;81.18;101857.00;5012341;28;20214;-72
2022/05/03 03:38:48;;;;;;;4.47;3.30;;;;;;;4.24;80.70;101851.28;5013610;28;20191;-72
2022/05/03 03:41:13;;;;;;;8.30;3.33;;;;;;;4.22;81.12;101847.81;5013019;28;20820;-73
2022/05/03 03:43:40;;;;;;;4.07;3.30;;;;;;;4.30;82.28;101845.72;5013381;28;20233;-72
2022/05/03 03:46:05;;;;;;;7.73;3.43;;;;;;;4.27;81.83;101845.53;5020737;28;20285;-71
2022/05/03 03:48:32;;;;;;;4.50;3.20;;;;;;;4.27;81.70;101853.13;5042645;28;20230;-71
2022/05/03 03:50:59;;;;;;;5.00;3.57;;;;;;;4.13;81.06;101848.88;5047093;28;20186;-72
2022/05/03 03:53:26;;;;;;;4.20;3.27;;;;;;;4.17;81.92;101851.72;5032920;28;20217;-71
2022/05/03 03:55:51;;;;;;;3.60;3.00;;;;;;;4.22;81.15;101846.91;5032951;28;20214;-72
2022/05/03 03:58:18;;;;;;;4.80;3.90;;;;;;;4.17;81.63;101844.13;5032827;28;20187;-71
2022/05/03 04:00:45;;;;;;;5.77;3.53;;;;;;;4.18;81.58;101853.47;5032963;28;20189;-72
2022/05/03 04:03:11;;;;;;;3.70;3.30;;;;;;;4.18;81.40;101847.53;5030885;28;20217;-71
2022/05/03 04:05:37;;;;;;;4.43;3.53;;;;;;;4.20;81.71;101851.03;5032789;28;20183;-71
2022/05/03 04:08:03;;;;;;;4.90;3.80;;;;;;;4.14;81.47;101851.53;5032551;28;20197;-71
2022/05/03 04:10:29;;;;;;;8.73;3.80;;;;;;;4.19;81.66;101857.75;5030559;28;20194;-71
2022/05/03 04:12:54;;;;;;;6.90;3.97;;;;;;;4.10;83.09;101856.31;5033037;28;20210;-72
2022/05/03 04:15:19;;;;;;;6.43;3.97;;;;;;;4.06;83.91;101867.06;5032725;28;20715;-72
2022/05/03 04:17:45;;;;;;;5.43;3.33;;;;;;;4.07;83.69;101872.22;5027979;28;20730;-71
2022/05/03 04:20:16;;;;;;;5.37;3.67;;;;;;;4.13;84.55;101861.56;5027717;28;20187;-71
2022/05/03 04:22:41;;;;;;;6.47;4.03;;;;;;;4.18;84.04;101865.28;5015205;28;20211;-71
2022/05/03 04:25:07;;;;;;;5.10;3.80;;;;;;;4.19;83.50;101857.75;5032092;28;20229;-72
2022/05/03 04:27:32;;;;;;;8.67;4.40;;;;;;;4.23;83.86;101857.16;5032595;28;20187;-72
2022/05/03 04:30:00;;;;;;;7.20;4.30;;;;;;;4.29;83.64;101861.72;5032047;28;20186;-71
2022/05/03 04:32:30;;;;;;;8.83;4.07;;;;;;;4.39;84.08;101864.91;5032180;28;20222;-71
2022/05/03 04:34:55;;;;;;;7.33;4.23;;;;;;;4.43;83.57;101861.78;5028576;28;20191;-71
2022/05/03 04:37:21;;;;;;;7.40;4.47;;;;;;;4.51;83.45;101862.25;5017681;28;20256;-72
2022/05/03 04:39:46;;;;;;;7.30;4.03;;;;;;;4.61;84.05;101865.38;5032567;28;20201;-72
2022/05/03 04:42:11;;;;;;;6.60;4.47;;;;;;;4.77;84.59;101868.06;5031750;28;20207;-71
2022/05/03 04:44:37;;;;;;;7.77;4.90;;;;;;;4.84;84.80;101871.81;5032421;28;20194;-71
2022/05/03 04:47:03;;;;;;;9.37;4.70;;;;;;;4.94;84.89;101867.38;5030609;28;20337;-71
2022/05/03 04:49:28;;;;;;;8.50;5.30;;;;;;;5.19;85.16;101870.53;5032077;28;20248;-71
2022/05/03 04:51:54;;;;;;;7.73;5.87;;;;;;;5.50;85.31;101865.50;5030087;28;20977;-72
2022/05/03 04:54:19;;;;;;;9.13;6.00;;;;;;;5.66;85.24;101871.50;5030989;28;20197;-71
2022/05/03 04:56:49;;;;;;;10.97;6.30;;;;;;;5.72;86.25;101866.78;5031960;28;20214;-72
2022/05/03 04:59:15;;;;;;;9.77;6.43;;;;;;;5.86;85.93;101870.09;5031462;28;20194;-72
2022/05/03 05:01:40;;;;;;;8.40;5.83;;;;;;;6.01;85.30;101878.56;5031696;28;20186;-72
2022/05/03 05:04:05;;;;;;;11.13;6.27;;;;;;;6.06;85.65;101874.59;5031335;28;20191;-71
2022/05/03 05:06:30;;;;;;;7.87;6.13;;;;;;;6.13;85.93;101886.84;5031772;28;20183;-72
2022/05/03 05:08:56;;;;;;;6.77;5.83;;;;;;;6.24;85.18;101880.66;5030031;28;20218;-72
2022/05/03 05:11:21;;;;;;;9.20;6.13;;;;;;;6.33;84.83;101883.69;5029052;28;20187;-72
2022/05/03 05:13:46;;;;;;;8.67;5.90;;;;;;;6.45;84.42;101881.81;5032427;28;20301;-72
2022/05/03 05:16:12;;;;;;;9.00;5.87;;;;;;;6.52;85.49;101886.41;5031162;28;20214;-72
2022/05/03 05:18:38;;;;;;;8.27;5.87;;;;;;;6.61;84.94;101887.75;5031601;28;20552;-72
2022/05/03 05:21:03;;;;;;;8.60;6.20;;;;;;;6.73;85.38;101885.81;5029544;28;20237;-72
2022/05/03 05:23:29;;;;;;;8.13;5.97;;;;;;;6.82;84.67;101893.94;5031266;28;20222;-71
2022/05/03 05:25:54;;;;;;;8.33;5.67;;;;;;;6.95;84.17;101893.75;5030974;28;20182;-72
2022/05/03 05:28:21;;;;;;;7.77;6.23;;;;;;;7.06;84.27;101891.75;5024947;28;20191;-72
2022/05/03 05:30:47;;;;;;;9.53;5.77;;;;;;;7.14;83.46;101881.16;5008886;28;20624;-72
2022/05/03 05:33:12;;;;;;;8.37;5.77;;;;;;;7.18;84.24;101880.50;5008427;28;20249;-71
2022/05/03 05:35:39;;;;;;;6.87;5.70;;;;;;;7.25;84.18;101885.13;5008613;28;20278;-71
2022/05/03 05:38:05;;;;;;;8.17;5.83;;;;;;;7.37;83.86;101882.28;5011016;28;20199;-72
2022/05/03 05:40:30;;;;;;;7.53;5.63;;;;;;;7.51;83.23;101882.13;5011498;28;20179;-71
2022/05/03 05:42:57;;;;;;;9.37;6.43;;;;;;;7.65;82.41;101887.91;5010856;28;20562;-72
2022/05/03 05:45:22;;;;;;;7.73;5.50;;;;;;;7.65;83.41;101891.31;5012111;28;20195;-72
2022/05/03 05:47:47;;;;;;;6.67;5.17;;;;;;;7.72;82.90;101885.72;5010834;28;20187;-72
2022/05/03 05:50:13;;;;;;;9.40;6.50;;;;;;;7.78;82.49;101885.16;5010713;28;20202;-72
2022/05/03 05:55:23;;;;;;;8.50;5.80;;;;;;;8.00;82.58;101872.56;5010962;28;20385;-71
2022/05/03 05:57:49;;;;;;;6.47;5.60;;;;;;;7.98;82.26;101875.06;5011439;28;20194;-72
2022/05/03 06:00:15;;;;;;;6.60;5.50;;;;;;;8.09;81.76;101878.09;5010576;28;20596;-72
2022/05/03 06:02:40;;;;;;;7.80;5.67;;;;;;;8.23;82.41;101871.97;5019701;28;20313;-71
2022/05/03 06:05:06;;;;;;;8.10;6.20;;;;;;;8.33;81.29;101875.00;5030297;28;20198;-72
2022/05/03 06:07:32;;;;;;;10.13;7.37;;;;;;;8.42;82.36;101869.44;5030818;28;20197;-72
2022/05/03 06:09:58;;;;;;;11.03;7.63;;;;;;;8.62;80.43;101866.94;5030183;28;20194;-72
2022/05/03 06:12:23;;;;;;;11.07;7.63;;;;;;;8.81;80.94;101871.19;5029367;28;20218;-72
2022/05/03 06:14:48;;;;;;;9.60;8.00;;;;;;;9.00;80.68;101866.91;5031060;28;20186;-71
2022/05/03 06:17:13;;;;;;;11.00;7.67;;;;;;;8.96;79.73;101864.16;5029867;28;20284;-71
2022/05/03 06:19:39;;;;;;;10.10;7.80;;;;;;;9.06;79.08;101862.06;5021313;28;20191;-71
2022/05/03 06:22:04;;;;;;;12.23;8.27;;;;;;;9.47;79.17;101856.06;5009749;28;20516;-72
2022/05/03 06:24:30;;;;;;;14.80;8.53;;;;;;;9.78;77.22;101853.91;5010588;28;20271;-72
2022/05/03 06:26:55;;;;;;;11.67;8.57;;;;;;;9.94;76.73;101867.34;5010009;28;20294;-72
2022/05/03 06:29:20;;;;;;;10.00;8.33;;;;;;;9.71;76.83;101864.69;5010563;28;20679;-72
2022/05/03 06:31:46;;;;;;;11.30;8.87;;;;;;;9.89;77.19;101866.28;5009990;28;20215;-72
2022/05/03 06:34:11;;;;;;;10.27;8.77;;;;;;;9.82;77.85;101855.78;5010062;28;20253;-72
2022/05/03 06:36:38;;;;;;;15.67;10.10;;;;;;;10.28;76.89;101866.97;5010721;28;20218;-71
2022/05/03 06:39:05;;;;;;;14.30;10.43;;;;;;;10.63;76.91;101869.09;5009899;28;20233;-72
2022/05/03 06:41:31;;;;;;;12.67;9.73;;;;;;;10.60;77.31;101862.16;5010261;28;20187;-72
2022/05/03 06:43:58;;;;;;;12.33;9.67;;;;;;;10.97;76.47;101862.63;5009610;28;20244;-72
2022/05/03 06:46:26;;;;;;;15.27;10.43;;;;;;;11.03;75.42;101861.97;5010263;28;20191;-72
2022/05/03 06:48:52;;;;;;;14.70;9.73;;;;;;;11.11;74.50;101863.09;5008712;28;20195;-72
2022/05/03 06:51:18;;;;;;;12.50;9.87;;;;;;;11.27;74.74;101867.91;5010155;28;20531;-73
2022/05/03 06:53:43;;;;;;;14.27;9.47;;;;;;;11.40;73.77;101870.94;5010348;28;20687;-72
2022/05/03 06:56:09;;;;;;;12.77;9.77;;;;;;;11.46;74.35;101865.09;5009520;28;20297;-73
2022/05/03 06:58:34;;;;;;;13.97;11.47;;;;;;;11.50;74.29;101870.41;5010103;28;20210;-72
2022/05/03 07:01:10;;;;;;;15.17;11.53;;;;;;;11.60;74.53;101864.78;5009345;28;20214;-72
2022/05/03 07:03:37;;;;;;;13.80;10.97;;;;;;;11.75;73.96;101869.53;5008504;28;20880;-73
2022/05/03 07:06:02;;;;;;;15.63;11.47;;;;;;;11.72;74.20;101869.41;5008223;28;20182;-73
2022/05/03 07:08:28;;;;;;;14.70;11.67;;;;;;;11.77;74.32;101871.31;5009911;28;20892;-72
2022/05/03 07:10:53;;;;;;;13.77;11.80;;;;;;;11.82;74.79;101874.88;5010741;28;20710;-71
2022/05/03 07:13:23;;;;;;;14.93;12.10;;;;;;;12.01;74.41;101874.59;5041805;28;20241;-71
2022/05/03 07:15:56;;;;;;;14.47;11.77;;;;;;;11.98;73.98;101879.63;5009895;28;20219;-72
2022/05/03 07:23:51;;;;;;;15.73;12.67;;;;;;;12.00;74.55;101874.56;5009224;28;20211;-71
2022/05/03 07:26:17;;;;;;;18.17;12.27;;;;;;;11.99;74.43;101886.50;5009849;28;20262;-72
2022/05/03 07:28:42;;;;;;;18.00;12.90;;;;;;;12.00;74.61;101883.16;5009738;28;20187;-73
2022/05/03 07:31:11;;;;;;;15.87;12.57;;;;;;;12.15;74.58;101881.03;5009436;28;20199;-72
2022/05/03 07:33:37;;;;;;;21.40;15.37;;;;;;;12.17;75.28;101886.22;5009010;28;20211;-72
2022/05/03 07:36:03;;;;;;;20.13;14.93;;;;;;;12.11;74.99;101876.63;5009671;28;20210;-72
2022/05/03 07:38:29;;;;;;;23.97;16.70;;;;;;;12.02;75.08;101873.78;5008637;28;20195;-72
2022/05/03 07:40:56;;;;;;;29.50;18.40;;;;;;;12.01;75.04;101884.00;5009218;28;20245;-72
2022/05/03 07:43:21;;;;;;;29.03;18.77;;;;;;;12.14;75.53;101880.97;5008054;28;20301;-72
2022/05/03 07:45:46;;;;;;;29.37;19.43;;;;;;;12.06;75.35;101882.44;5009407;28;20298;-71
2022/05/03 07:48:12;;;;;;;27.33;18.27;;;;;;;12.11;75.34;101881.75;5009521;28;20241;-72
2022/05/03 07:50:37;;;;;;;29.40;19.40;;;;;;;12.27;74.84;101886.53;5009052;28;20242;-72
2022/05/03 07:53:03;;;;;;;27.97;20.07;;;;;;;12.30;74.93;101880.63;5009279;28;20242;-72
2022/05/03 07:55:28;;;;;;;25.13;19.17;;;;;;;12.31;75.02;101879.78;5009347;28;20215;-72
2022/05/03 07:57:54;;;;;;;26.37;19.60;;;;;;;12.37;75.14;101887.66;5009166;28;20237;-72
2022/05/03 08:00:19;;;;;;;26.87;18.50;;;;;;;12.59;74.61;101885.72;5009348;28;20191;-72
2022/05/03 08:02:45;;;;;;;25.60;18.47;;;;;;;12.81;72.92;101887.22;5009104;28;20285;-73
2022/05/03 08:05:10;;;;;;;24.97;17.77;;;;;;;13.06;72.54;101881.03;5009431;28;20187;-72
2022/05/03 08:07:36;;;;;;;22.23;16.03;;;;;;;13.45;70.96;101885.47;5009021;28;20188;-72
2022/05/03 08:10:03;;;;;;;25.60;16.87;;;;;;;13.68;71.03;101886.88;5009429;28;20183;-72
2022/05/03 08:12:28;;;;;;;21.23;16.50;;;;;;;13.87;69.91;101888.19;5018275;28;20699;-72
2022/05/03 08:14:55;;;;;;;20.37;15.90;;;;;;;13.93;69.98;101881.47;5033184;28;20274;-73
2022/05/03 08:17:20;;;;;;;22.57;16.87;;;;;;;13.85;70.09;101889.88;5032858;28;20308;-72
2022/05/03 08:19:46;;;;;;;21.93;16.57;;;;;;;13.68;69.94;101893.75;5014129;28;20687;-72
2022/05/03 08:22:11;;;;;;;21.60;15.77;;;;;;;13.66;70.48;101898.84;5012329;28;20207;-72
2022/05/03 08:24:37;;;;;;;20.77;15.83;;;;;;;13.57;70.51;101896.06;5012539;28;20191;-72
2022/05/03 08:27:03;;;;;;;22.47;16.20;;;;;;;13.51;70.87;101905.34;5011727;28;20195;-72
2022/05/03 08:29:31;;;;;;;25.10;17.10;;;;;;;13.35;71.34;101903.22;5012406;28;20680;-72
2022/05/03 08:31:57;;;;;;;23.27;16.77;;;;;;;13.22;71.02;101896.88;5012552;28;20269;-72
2022/05/03 08:34:22;;;;;;;21.27;15.90;;;;;;;13.22;71.98;101907.16;5012896;28;20183;-73
2022/05/03 08:42:01;;;;;;;22.80;17.43;;;;;;;13.16;71.85;101908.75;5011360;28;20817;-72
2022/05/03 08:42:17;;;;;;;26.30;19.03;;;;;;;12.99;72.90;101910.88;5011786;28;20206;-72
2022/05/03 08:44:42;;;;;;;22.13;17.07;;;;;;;12.98;73.17;101916.81;5012401;28;20573;-72
2022/05/03 08:47:07;;;;;;;24.70;16.93;;;;;;;12.83;73.55;101918.94;5011996;28;20233;-72
2022/05/03 08:49:54;;;;;;;22.50;16.37;;;;;;;12.84;74.59;101920.69;5012466;28;20195;-72
2022/05/03 08:52:21;;;;;;;26.43;16.37;;;;;;;12.84;74.10;101925.81;5017638;28;20214;-73
2022/05/03 08:54:46;;;;;;;21.27;15.63;;;;;;;12.69;74.31;101922.84;5032147;28;20597;-72
2022/05/03 08:57:12;;;;;;;21.30;15.80;;;;;;;12.75;74.28;101921.31;5031657;28;20232;-72
2022/05/03 08:59:38;;;;;;;20.37;14.93;;;;;;;12.70;74.08;101929.72;5032064;28;20277;-72
2022/05/03 09:02:04;;;;;;;24.67;15.37;;;;;;;12.77;74.12;101924.78;5031811;28;20310;-72
2022/05/03 09:04:30;;;;;;;21.47;16.03;;;;;;;12.68;74.25;101921.09;5031457;28;20170;-72
2022/05/03 09:06:55;;;;;;;25.73;16.37;;;;;;;12.78;74.17;101926.56;5031978;28;20179;-72
2022/05/03 09:09:21;;;;;;;21.53;18.23;;;;;;;12.77;75.00;101918.78;5030573;28;20193;-72
2022/05/03 09:11:49;;;;;;;22.93;17.30;;;;;;;12.68;74.37;101926.25;5032607;28;20190;-72
2022/05/03 09:14:37;;;;;;;22.13;16.60;;;;;;;12.74;74.65;101926.41;5032543;28;20183;-72
2022/05/03 09:17:03;;;;;;;22.03;16.17;;;;;;;13.01;73.79;101931.47;5031949;28;20211;-72
2022/05/03 09:19:29;;;;;;;28.17;17.87;;;;;;;12.98;73.96;101929.69;5031458;28;20546;-72
2022/05/03 09:24:52;;;;;;;22.37;15.93;;;;;;;13.00;73.04;101937.44;5030305;28;20182;-72
2022/05/03 09:27:22;;;;;;;22.67;16.03;;;;;;;13.00;73.53;101943.47;5016848;28;20244;-72
2022/05/03 09:30:01;;;;;;;24.47;18.27;;;;;;;12.84;73.86;101941.25;5011485;28;20529;-72
2022/05/03 09:32:38;;;;;;;22.67;16.43;;;;;;;13.00;73.80;101940.00;5010939;28;20211;-72
2022/05/03 09:35:05;;;;;;;20.07;15.93;;;;;;;13.10;73.97;101940.31;5011641;28;20302;-72
2022/05/03 09:37:41;;;;;;;22.07;16.67;;;;;;;13.14;72.99;101941.25;5010928;28;20550;-71
2022/05/03 09:40:08;;;;;;;22.37;16.57;;;;;;;13.14;72.74;101933.53;5011657;28;20186;-72
2022/05/03 09:42:37;;;;;;;21.40;16.53;;;;;;;13.32;71.68;101937.47;5009755;28;20234;-73
2022/05/03 09:45:05;;;;;;;22.07;18.20;;;;;;;13.29;71.68;101932.22;5012048;28;20663;-74
2022/05/03 09:47:46;;;;;;;25.00;17.20;;;;;;;13.34;71.58;101937.47;5010983;28;20660;-73
2022/05/03 09:50:23;;;;;;;22.97;17.23;;;;;;;13.12;72.62;101932.63;5009966;28;20179;-73
2022/05/03 09:52:50;;;;;;;23.43;17.13;;;;;;;13.27;72.28;101938.16;5010675;28;20206;-75
2022/05/03 09:55:28;;;;;;;23.77;17.30;;;;;;;13.53;71.58;101939.72;5010596;28;20552;-74
2022/05/03 09:57:54;;;;;;;22.97;17.93;;;;;;;13.48;71.20;101936.16;5025316;28;20261;-74
2022/05/03 10:00:19;;;;;;;21.87;17.23;;;;;;;13.43;71.80;101936.03;5030747;28;20194;-74
2022/05/03 10:02:47;;;;;;;23.60;17.87;;;;;;;13.43;71.35;101938.59;5017165;28;20211;-74
2022/05/03 10:05:13;;;;;;;20.90;18.13;;;;;;;13.48;71.57;101947.31;5010331;28;20187;-74
2022/05/03 10:07:43;;;;;;;20.97;17.60;;;;;;;13.59;70.59;101943.31;5010813;28;20191;-74
2022/05/03 10:10:09;;;;;;;22.17;19.77;;;;;;;13.76;69.51;101934.28;5009270;28;20302;-75
2022/05/03 10:12:35;;;;;;;22.97;17.93;;;;;;;15.58;63.88;101926.06;5010212;28;20214;-74
2022/05/03 10:15:01;;;;;;;19.87;16.77;;;;;;;15.85;61.52;101921.34;5010246;28;20187;-74
2022/05/03 10:20:36;;;;;;;23.63;17.67;;;;;;;15.33;63.05;101925.59;5030088;28;20175;-74
2022/05/03 10:23:02;;;;;;;17.53;15.67;;;;;;;15.13;63.28;101927.81;5029944;28;20216;-73
2022/05/03 10:25:50;;;;;;;18.80;14.73;;;;;;;14.77;63.91;101921.97;5030411;28;20190;-75
2022/05/03 10:28:16;;;;;;;15.73;13.57;;;;;;;14.76;64.60;101922.81;5029841;28;20652;-73
2022/05/03 10:31:06;;;;;;;21.57;12.47;;;;;;;14.95;63.20;101914.56;5030091;28;20196;-74
2022/05/03 10:33:31;;;;;;;11.73;9.97;;;;;;;15.98;58.89;101901.72;5029562;28;20332;-74
2022/05/03 10:36:01;;;;;;;14.00;9.47;;;;;;;16.78;57.28;101904.53;5010061;28;20690;-74
2022/05/03 10:38:38;;;;;;;12.77;8.80;;;;;;;17.57;55.34;101899.28;5009763;28;20226;-74
2022/05/03 10:41:05;;;;;;;15.90;7.73;;;;;;;17.15;54.42;101900.59;5010758;28;20186;-74
2022/05/03 10:43:33;;;;;;;12.07;7.57;;;;;;;17.05;53.60;101894.47;5027560;28;20217;-74
2022/05/03 10:46:12;;;;;;;10.20;6.93;;;;;;;17.13;54.37;101904.91;5029965;28;20186;-74
2022/05/03 10:48:41;;;;;;;10.93;7.40;;;;;;;17.12;53.65;101903.16;5028561;28;20639;-74
2022/05/03 10:51:08;;;;;;;7.97;7.10;;;;;;;17.02;54.95;101896.16;5028604;28;20209;-74
2022/05/03 10:53:36;;;;;;;7.43;6.70;;;;;;;17.47;52.90;101887.13;5030948;28;20226;-74
2022/05/03 10:56:08;;;;;;;11.00;6.53;;;;;;;17.80;51.99;101889.97;5029702;28;20218;-74
2022/05/03 10:58:39;;;;;;;6.90;5.73;;;;;;;17.85;51.25;101885.69;5030090;28;20206;-74
2022/05/03 11:01:21;;;;;;;9.47;6.17;;;;;;;17.86;50.94;101883.94;5029787;28;20792;-74
2022/05/03 11:03:51;;;;;;;8.27;5.80;;;;;;;18.05;49.86;101884.06;5029617;28;20209;-74
2022/05/03 11:06:19;;;;;;;9.13;5.27;;;;;;;17.85;51.03;101889.97;5029421;28;20631;-74
2022/05/03 11:11:50;;;;;;;6.17;4.33;;;;;;;16.65;52.83;101875.91;5009367;28;20186;-74
2022/05/03 11:14:22;;;;;;;10.67;5.40;;;;;;;17.72;51.34;101877.78;5009853;28;20210;-74
2022/05/03 11:17:05;;;;;;;9.90;4.83;;;;;;;18.89;49.33;101886.19;5008045;28;20207;-74
2022/05/03 11:19:54;;;;;;;5.13;2.70;;;;;;;18.90;46.99;101875.81;5009957;28;20186;-74
2022/05/03 11:22:31;;;;;;;6.73;2.80;;;;;;;19.29;45.99;101877.59;5008814;28;20206;-74
2022/05/03 11:24:58;;;;;;;5.67;2.80;;;;;;;19.18;45.50;101872.38;5009776;28;20626;-75
2022/05/03 11:27:25;;;;;;;5.67;2.97;;;;;;;19.53;45.43;101868.06;5009783;28;20167;-74
2022/05/03 11:29:57;;;;;;;5.43;2.80;;;;;;;19.91;44.10;101863.69;5009462;28;20191;-74
2022/05/03 11:32:32;;;;;;;4.80;2.77;;;;;;;19.48;44.34;101871.56;5009404;28;20210;-74
2022/05/03 11:35:02;;;;;;;7.00;2.70;;;;;;;18.72;46.29;101880.06;5009255;28;20256;-74
2022/05/03 11:37:27;;;;;;;6.93;2.27;;;;;;;18.64;45.89;101882.66;5009676;28;20214;-74
2022/05/03 11:40:00;;;;;;;5.27;3.00;;;;;;;18.30;46.95;101883.34;5008985;28;20183;-74
2022/05/03 11:42:26;;;;;;;5.90;2.70;;;;;;;19.26;45.89;101880.22;5009295;28;20215;-74
2022/05/03 11:44:52;;;;;;;4.37;2.47;;;;;;;19.36;44.80;101868.94;5016990;28;20190;-74
2022/05/03 11:47:17;;;;;;;4.43;2.20;;;;;;;18.90;44.77;101875.81;5033953;28;20197;-74
2022/05/03 11:49:43;;;;;;;6.20;2.63;;;;;;;19.41;44.47;101873.28;5033023;28;20182;-74
2022/05/03 11:57:42;;;;;;;3.03;2.00;;;;;;;18.04;46.15;101869.38;5032750;28;20202;-74
2022/05/03 12:00:13;;;;;;;3.70;1.80;;;;;;;18.88;43.52;101861.09;5019664;28;20675;-74
2022/05/03 12:02:41;;;;;;;7.83;2.47;;;;;;;18.57;44.36;101869.66;5043448;28;20201;-74
2022/05/03 12:05:16;;;;;;;5.40;2.60;;;;;;;18.83;45.10;101865.41;5033178;28;20274;-74
2022/05/03 12:07:46;;;;;;;5.13;2.53;;;;;;;19.18;44.10;101866.31;5032602;28;20181;-74
2022/05/03 12:10:30;;;;;;;3.37;2.30;;;;;;;19.36;44.21;101863.75;5033544;28;20179;-74